Time;durP1;ratioP1;P1;durP2;ratioP2;P2;SDS_P1;SDS_P2;PMS_P1;PMS_P2;Temp;Humidity;BMP_temperature;BMP_pressure;BME280_temperature;BME280_humidity;BME280_pressure;Samples;Min_cycle;Max_cycle;Signal;HPM_P1;HPM_P2
2022/02/21 00:01:16;;;;;;;10.10;7.00;;;;;;;18.75;40.59;101011.25;104084;1318;75031;-82
2022/02/21 00:04:02;;;;;;;10.50;7.50;;;;;;;18.75;40.50;101014.30;103967;1315;61646;-82
2022/02/21 00:07:23;;;;;;;;;;;;;;;;;;;;;
2022/02/21 00:10:16;;;;;;;11.30;7.00;;;;;;;18.74;40.50;101011.17;103023;1323;73358;-83
2022/02/21 00:13:13;;;;;;;9.90;6.70;;;;;;;18.74;40.46;101012.23;103042;1323;73928;-84
2022/02/21 00:16:02;;;;;;;10.50;6.40;;;;;;;18.74;40.42;101009.91;102873;1324;60518;-84
2022/02/21 00:18:51;;;;;;;11.20;7.20;;;;;;;18.74;40.47;101006.17;102941;1324;62019;-78
2022/02/21 00:21:51;;;;;;;9.50;6.70;;;;;;;18.73;40.43;101001.39;102451;1332;74106;-85
2022/02/21 00:24:48;;;;;;;10.80;6.90;;;;;;;18.73;40.47;101005.16;102243;1335;75195;-85
2022/02/21 00:27:58;;;;;;;10.60;7.00;;;;;;;18.73;40.42;101005.15;102062;1338;60558;-80
2022/02/21 00:30:36;;;;;;;10.50;6.90;;;;;;;18.73;40.42;100999.09;102366;1332;60697;-82
2022/02/21 00:33:22;;;;;;;10.60;7.10;;;;;;;18.73;40.42;100991.79;102347;1333;72448;-81
2022/02/21 00:36:25;;;;;;;10.10;6.70;;;;;;;18.72;40.37;100988.28;102039;1338;74261;-81
2022/02/21 00:39:44;;;;;;;11.50;6.90;;;;;;;18.72;40.36;100988.83;101765;1342;60559;-82
2022/02/21 00:42:42;;;;;;;9.20;7.00;;;;;;;18.72;40.31;100978.30;101803;1342;60516;-86
2022/02/21 00:45:49;;;;;;;10.20;7.30;;;;;;;18.72;40.41;100971.70;101768;1341;73982;-88
2022/02/21 00:48:35;;;;;;;10.30;6.80;;;;;;;18.71;40.39;100973.15;101819;1341;73485;-79
2022/02/21 00:51:54;;;;;;;10.10;6.50;;;;;;;18.71;40.29;100972.80;101604;1347;60450;-82
2022/02/21 00:54:52;;;;;;;9.60;6.80;;;;;;;18.71;40.34;100966.04;101243;1351;60544;-82
2022/02/21 00:58:34;;;;;;;11.60;7.10;;;;;;;18.71;40.37;100968.38;101406;1350;73719;-83
2022/02/21 01:01:21;;;;;;;9.90;6.90;;;;;;;18.71;40.40;100961.25;100952;1351;75258;-82
2022/02/21 01:04:23;;;;;;;9.60;6.70;;;;;;;18.70;40.25;100951.48;101490;1348;60660;-86
2022/02/21 01:07:21;;;;;;;9.70;6.60;;;;;;;18.69;40.41;100947.62;101668;1347;60587;-82
2022/02/21 01:10:39;;;;;;;10.00;7.00;;;;;;;18.70;40.35;100952.57;101669;1347;72034;-82
2022/02/21 01:13:37;;;;;;;8.70;6.80;;;;;;;18.70;40.36;100952.57;101692;1344;73969;-84
2022/02/21 01:16:24;;;;;;;9.60;6.70;;;;;;;18.70;40.38;100953.45;101658;1345;61571;-82
2022/02/21 01:19:30;;;;;;;11.40;6.80;;;;;;;18.70;40.45;100946.15;101694;1345;60610;-83
2022/02/21 01:22:26;;;;;;;10.70;6.70;;;;;;;18.70;40.41;100941.02;101795;1338;73037;-84
2022/02/21 01:25:14;;;;;;;9.00;6.50;;;;;;;18.69;40.40;100939.60;101811;1341;74164;-85
2022/02/21 01:28:20;;;;;;;10.10;6.50;;;;;;;18.69;40.39;100945.14;101863;1338;60531;-82
2022/02/21 01:31:23;;;;;;;9.90;6.80;;;;;;;18.69;40.34;100945.14;101964;1335;60460;-85
2022/02/21 01:34:29;;;;;;;10.50;7.00;;;;;;;18.68;40.29;100939.64;102334;1333;72611;-84
2022/02/21 01:36:58;;;;;;;8.60;6.70;;;;;;;18.69;40.37;100941.78;102403;1329;75319;-82
2022/02/21 01:40:15;;;;;;;9.30;6.60;;;;;;;18.68;40.31;100936.98;102664;1328;61791;-86
2022/02/21 01:43:19;;;;;;;8.90;6.20;;;;;;;18.68;40.36;100932.91;102476;1332;60631;-83
2022/02/21 01:46:15;;;;;;;8.70;7.10;;;;;;;18.67;40.22;100929.18;102121;1337;72943;-81
2022/02/21 01:48:44;;;;;;;11.50;7.10;;;;;;;18.67;40.33;100922.79;102095;1335;75031;-83
2022/02/21 01:51:41;;;;;;;11.10;6.90;;;;;;;18.68;40.30;100924.71;102042;1338;60974;-86
2022/02/21 01:54:56;;;;;;;;;;;;;;;;;;;;;
2022/02/21 01:58:03;;;;;;;9.30;6.20;;;;;;;18.67;40.33;100920.33;102009;1338;72210;-82
2022/02/21 02:01:05;;;;;;;9.10;6.40;;;;;;;18.66;40.25;100920.34;102000;1339;74878;-79
2022/02/21 02:03:52;;;;;;;10.80;7.10;;;;;;;18.66;40.40;100917.52;102314;1335;61135;-82
2022/02/21 02:06:58;;;;;;;9.30;6.60;;;;;;;18.66;40.33;100912.90;102244;1335;60533;-82
2022/02/21 02:10:00;;;;;;;10.30;7.20;;;;;;;18.65;40.36;100904.88;102311;1335;73185;-84
2022/02/21 02:12:56;;;;;;;10.10;7.20;;;;;;;18.66;40.26;100901.48;102401;1334;74236;-83
2022/02/21 02:16:01;;;;;;;;;;;;;;;;;;;;;
2022/02/21 02:18:56;;;;;;;9.10;6.80;;;;;;;18.65;40.33;100897.43;102433;1335;60918;-84
2022/02/21 02:22:41;;;;;;;;;;;;;;;;;;;;;
2022/02/21 02:25:33;;;;;;;11.20;6.70;;;;;;;18.65;40.31;100889.07;101850;1341;75011;-85
2022/02/21 02:28:57;;;;;;;10.60;7.20;;;;;;;18.64;40.24;100886.95;101655;1347;61178;-83
2022/02/21 02:31:55;;;;;;;9.60;7.40;;;;;;;18.64;40.22;100886.41;101393;1349;61629;-82
2022/02/21 02:34:54;;;;;;;;;;;;;;;;;;;;;
2022/02/21 02:37:52;;;;;;;;;;;;;;;;;;;;;
2022/02/21 02:40:41;;;;;;;11.00;7.00;;;;;;;18.65;40.28;100889.07;101570;1348;61563;-86
2022/02/21 02:43:39;;;;;;;10.00;7.10;;;;;;;18.64;40.27;100881.82;101562;1348;61630;-82
2022/02/21 02:50:02;;;;;;;;;;;;;;;;;;;;;
2022/02/21 02:52:58;;;;;;;13.00;8.10;;;;;;;18.63;40.27;100874.02;100213;1364;61627;-82
2022/02/21 02:56:01;;;;;;;12.50;8.30;;;;;;;18.63;40.31;100868.84;99697;1369;60653;-85
2022/02/21 02:58:55;;;;;;;12.10;8.10;;;;;;;18.63;40.17;100866.19;99685;1368;73106;-85
2022/02/21 03:01:45;;;;;;;11.40;8.50;;;;;;;18.63;40.33;100869.55;99503;1364;73992;-80
2022/02/21 03:04:45;;;;;;;11.30;7.90;;;;;;;18.63;40.06;100864.39;100150;1365;60701;-83
2022/02/21 03:07:39;;;;;;;11.40;7.60;;;;;;;18.63;40.15;100861.73;100636;1358;60830;-83
2022/02/21 03:10:40;;;;;;;11.10;7.60;;;;;;;18.62;40.19;100855.00;101269;1353;74110;-82
2022/02/21 03:13:41;;;;;;;;;;;;;;;;;;;;;
2022/02/21 03:16:29;;;;;;;11.00;7.70;;;;;;;18.62;40.24;100845.94;101238;1353;60695;-82
2022/02/21 03:20:00;;;;;;;11.80;8.70;;;;;;;18.61;40.09;100856.31;101604;1347;60563;-83
2022/02/21 03:23:06;;;;;;;11.10;7.70;;;;;;;18.60;40.13;100857.76;101273;1353;70512;-83
2022/02/21 03:26:02;;;;;;;12.20;7.60;;;;;;;18.61;40.21;100857.04;101379;1348;73446;-83
2022/02/21 03:28:48;;;;;;;11.70;7.90;;;;;;;18.60;40.24;100847.95;101410;1347;60525;-81
2022/02/21 03:31:39;;;;;;;11.50;8.10;;;;;;;18.61;40.16;100840.11;101567;1348;61549;-87
2022/02/21 03:34:34;;;;;;;12.10;8.90;;;;;;;18.61;40.27;100833.86;101554;1348;73293;-83
2022/02/21 03:37:25;;;;;;;10.80;7.80;;;;;;;18.60;40.11;100829.81;101552;1348;74092;-83
2022/02/21 03:40:11;;;;;;;12.90;8.00;;;;;;;18.60;40.13;100831.04;101568;1348;60563;-86
2022/02/21 03:42:51;;;;;;;12.90;8.60;;;;;;;18.60;40.20;100833.92;101561;1348;61326;-84
2022/02/21 03:45:37;;;;;;;11.20;8.50;;;;;;;18.60;40.14;100837.67;101424;1348;73944;-84
2022/02/21 03:51:36;;;;;;;11.10;7.90;;;;;;;18.58;40.20;100850.39;101370;1352;61451;-84
2022/02/21 03:54:07;;;;;;;10.30;8.10;;;;;;;18.57;40.26;100852.57;101404;1352;60604;-80
2022/02/21 03:57:13;;;;;;;10.90;7.80;;;;;;;18.58;40.29;100853.10;101437;1350;72819;-87
2022/02/21 04:00:02;;;;;;;;;;;;;;;;;;;;;
2022/02/21 04:02:54;;;;;;;12.30;8.30;;;;;;;18.57;40.25;100839.41;101448;1351;62214;-82
2022/02/21 04:06:06;;;;;;;11.70;8.70;;;;;;;18.56;40.16;100822.55;101563;1344;60646;-82
2022/02/21 04:09:01;;;;;;;12.20;8.60;;;;;;;18.55;40.23;100814.56;101667;1344;72852;-84
2022/02/21 04:12:13;;;;;;;12.60;8.30;;;;;;;18.55;40.26;100809.03;101620;1347;75305;-80
2022/02/21 04:15:29;;;;;;;11.80;8.70;;;;;;;18.55;40.11;100806.03;101612;1347;62101;-83
2022/02/21 04:18:21;;;;;;;10.10;7.70;;;;;;;18.55;40.18;100811.21;101621;1347;61108;-84
2022/02/21 04:21:37;;;;;;;;;;;;;;;;;;;;;
2022/02/21 04:24:39;;;;;;;;;;;;;;;;;;;;;
2022/02/21 04:27:42;;;;;;;10.90;8.00;;;;;;;18.54;40.15;100811.42;101247;1352;60582;-83
2022/02/21 04:30:32;;;;;;;10.90;7.60;;;;;;;18.54;40.20;100806.41;101488;1350;60535;-83
2022/02/21 04:33:38;;;;;;;11.70;8.30;;;;;;;18.55;40.15;100804.25;101522;1350;72879;-83
2022/02/21 04:36:48;;;;;;;;;;;;;;;;;;;;;
2022/02/21 04:39:53;;;;;;;14.30;9.60;;;;;;;18.53;40.54;100796.73;101437;1352;60587;-82
2022/02/21 04:42:46;;;;;;;15.50;11.00;;;;;;;18.50;40.77;100795.67;101492;1351;60409;-83
2022/02/21 04:45:36;;;;;;;;;;;;;;;;;;;;;
2022/02/21 04:48:23;;;;;;;15.20;11.10;;;;;;;18.38;41.48;100805.10;101636;1341;74231;-82
2022/02/21 04:51:34;;;;;;;;;;;;;;;;;;;;;
2022/02/21 04:54:04;;;;;;;15.80;11.40;;;;;;;18.22;42.11;100792.17;101885;1340;61442;-78
2022/02/21 04:57:04;;;;;;;15.10;10.70;;;;;;;18.11;42.41;100780.49;101838;1341;73675;-86
2022/02/21 05:00:30;;;;;;;15.70;11.50;;;;;;;17.98;42.67;100774.49;101854;1335;72798;-82
2022/02/21 05:03:18;;;;;;;;;;;;;;;;;;;;;
2022/02/21 05:06:18;;;;;;;15.90;12.20;;;;;;;17.66;42.91;100762.76;101728;1341;61760;-83
2022/02/21 05:09:19;;;;;;;16.60;11.80;;;;;;;17.52;43.06;100761.59;101564;1348;73904;-84
2022/02/21 05:12:07;;;;;;;18.50;12.00;;;;;;;17.38;42.98;100767.54;101091;1354;75466;-85
2022/02/21 05:15:02;;;;;;;17.30;12.20;;;;;;;17.29;42.89;100764.33;101548;1350;60544;-83
2022/02/21 05:18:05;;;;;;;;;;;;;;;;;;;;;
2022/02/21 05:20:55;;;;;;;19.80;11.80;;;;;;;17.24;42.58;100770.06;101655;1343;73895;-80
2022/02/21 05:23:55;;;;;;;;;;;;;;;;;;;;;
2022/02/21 05:27:12;;;;;;;;;;;;;;;;;;;;;
2022/02/21 05:30:23;;;;;;;17.60;11.20;;;;;;;17.38;41.77;100771.61;101472;1348;60444;-83
2022/02/21 05:33:40;;;;;;;17.10;10.00;;;;;;;17.48;41.29;100770.02;101478;1348;72886;-86
2022/02/21 05:36:17;;;;;;;17.80;10.70;;;;;;;17.54;40.89;100767.88;101454;1348;74457;-83
2022/02/21 05:39:12;;;;;;;17.70;11.20;;;;;;;17.60;40.57;100770.75;101452;1348;61651;-85
2022/02/21 05:41:37;;;;;;;19.40;11.60;;;;;;;17.65;40.28;100770.63;101757;1339;61779;-79
2022/02/21 05:44:17;;;;;;;17.60;10.70;;;;;;;17.71;39.94;100770.30;101498;1340;60514;-81
2022/02/21 05:46:43;;;;;;;15.30;9.60;;;;;;;17.76;39.62;100765.36;101927;1334;75687;-80
2022/02/21 05:49:10;;;;;;;19.20;11.50;;;;;;;17.80;39.37;100764.81;102121;1323;60622;-81
2022/02/21 05:51:39;;;;;;;15.30;11.10;;;;;;;17.82;39.09;100760.23;102969;1320;60512;-79
2022/02/21 05:54:09;;;;;;;21.10;11.60;;;;;;;17.83;38.79;100763.56;102804;1320;72593;-80
2022/02/21 05:56:46;;;;;;;18.10;11.80;;;;;;;17.83;38.57;100763.19;103021;1320;75071;-79
2022/02/21 05:59:12;;;;;;;16.50;11.20;;;;;;;17.85;38.38;100763.27;103122;1320;61453;-79
2022/02/21 06:01:53;;;;;;;;;;;;;;;;;;;;;
2022/02/21 06:04:19;;;;;;;17.70;11.60;;;;;;;17.85;37.99;100757.55;103695;1314;73060;-80
2022/02/21 06:06:45;;;;;;;17.60;11.20;;;;;;;17.86;37.90;100752.52;103556;1309;60885;-78
2022/02/21 06:09:11;;;;;;;20.90;11.60;;;;;;;17.87;37.70;100748.19;105054;1308;58734;-79
2022/02/21 06:11:44;;;;;;;19.10;9.80;;;;;;;17.87;37.52;100747.65;104229;1306;60482;-79
2022/02/21 06:14:10;;;;;;;13.50;8.60;;;;;;;17.88;37.41;100738.37;104487;1305;72829;-81
2022/02/21 06:16:36;;;;;;;18.90;10.40;;;;;;;17.92;37.28;100738.30;104159;1306;60468;-79
2022/02/21 06:19:02;;;;;;;16.10;9.40;;;;;;;17.99;37.17;100734.50;104092;1306;60495;-80
2022/02/21 06:21:28;;;;;;;16.70;9.30;;;;;;;18.07;37.05;100730.12;104028;1306;60531;-81
2022/02/21 06:23:55;;;;;;;18.10;9.10;;;;;;;18.16;36.99;100722.11;105090;1306;58170;-79
2022/02/21 06:26:21;;;;;;;14.40;8.50;;;;;;;18.27;36.85;100722.04;104362;1306;60933;-79
2022/02/21 06:28:58;;;;;;;14.80;8.50;;;;;;;18.36;36.74;100719.36;104228;1306;60477;-81
2022/02/21 06:31:24;;;;;;;13.80;8.70;;;;;;;18.44;36.58;100714.94;104361;1306;60558;-79
2022/02/21 06:33:50;;;;;;;13.60;8.30;;;;;;;18.51;36.54;100712.16;104194;1305;60572;-79
2022/02/21 06:36:34;;;;;;;16.20;8.40;;;;;;;18.58;36.52;100716.89;104366;1306;60441;-79
2022/02/21 06:39:08;;;;;;;20.40;8.30;;;;;;;18.65;36.50;100720.03;104371;1303;61444;-79
2022/02/21 06:41:34;;;;;;;15.90;7.80;;;;;;;18.71;36.54;100723.60;105348;1305;59357;-80
2022/02/21 06:44:01;;;;;;;15.90;7.80;;;;;;;18.76;36.64;100721.32;101638;1306;5510250;-79
2022/02/21 06:46:27;;;;;;;14.60;8.80;;;;;;;18.90;36.62;100718.33;104315;1306;60350;-80
2022/02/21 06:49:01;;;;;;;16.70;8.80;;;;;;;19.03;36.44;100715.19;104284;1305;60595;-79
2022/02/21 06:51:27;;;;;;;17.50;8.90;;;;;;;19.02;36.70;100715.77;104173;1306;61659;-80
2022/02/21 06:54:08;;;;;;;16.10;8.50;;;;;;;19.04;36.53;100706.93;104185;1306;61183;-79
2022/02/21 06:56:33;;;;;;;22.10;9.30;;;;;;;19.05;36.39;100706.51;104238;1306;59927;-78
2022/02/21 06:59:08;;;;;;;18.60;7.90;;;;;;;19.06;36.43;100702.19;104098;1306;60599;-79
2022/02/21 07:01:34;;;;;;;21.40;8.80;;;;;;;19.08;36.49;100702.39;104315;1306;61153;-80
2022/02/21 07:04:00;;;;;;;20.80;9.80;;;;;;;19.10;36.56;100701.38;104368;1305;60120;-80
2022/02/21 07:06:25;;;;;;;21.50;11.10;;;;;;;19.09;36.31;100696.08;104289;1306;61274;-79
2022/02/21 07:08:51;;;;;;;17.10;8.70;;;;;;;19.06;36.28;100693.80;104112;1306;60234;-78
2022/02/21 07:11:16;;;;;;;17.60;10.30;;;;;;;19.01;36.09;100686.59;104412;1306;59841;-79
2022/02/21 07:13:42;;;;;;;19.30;10.60;;;;;;;18.99;35.91;100679.98;104410;1304;61172;-79
2022/02/21 07:16:07;;;;;;;20.00;10.70;;;;;;;18.97;35.87;100673.70;104360;1306;61326;-79
2022/02/21 07:18:37;;;;;;;21.90;11.10;;;;;;;18.95;35.86;100669.16;104268;1306;61279;-78
2022/02/21 07:21:03;;;;;;;24.90;11.10;;;;;;;18.96;35.69;100661.42;104351;1306;74834;-78
2022/02/21 07:23:30;;;;;;;21.60;10.20;;;;;;;18.99;35.70;100657.52;104180;1306;61125;-78
2022/02/21 07:25:56;;;;;;;21.20;10.30;;;;;;;19.02;35.62;100659.98;104371;1305;61300;-79
2022/02/21 07:28:22;;;;;;;22.00;10.50;;;;;;;19.05;35.68;100664.08;104346;1304;60319;-79
2022/02/21 07:30:48;;;;;;;21.10;10.60;;;;;;;19.05;35.60;100669.05;104284;1306;62937;-80
2022/02/21 07:33:14;;;;;;;20.50;10.60;;;;;;;19.03;35.51;100672.36;103959;1306;61312;-80
2022/02/21 07:35:40;;;;;;;19.00;10.90;;;;;;;19.01;35.42;100673.75;104113;1306;61294;-79
2022/02/21 07:38:05;;;;;;;18.50;11.00;;;;;;;19.00;35.48;100676.02;104097;1306;61920;-80
2022/02/21 07:40:31;;;;;;;23.70;10.60;;;;;;;18.97;35.45;100674.73;104121;1305;61315;-79
2022/02/21 07:42:57;;;;;;;18.90;10.70;;;;;;;18.94;35.34;100670.28;104199;1305;74415;-79
2022/02/21 07:45:23;;;;;;;20.20;10.50;;;;;;;18.92;35.36;100669.88;104074;1306;61351;-78
2022/02/21 07:47:50;;;;;;;20.00;10.80;;;;;;;18.89;35.20;100667.36;104090;1305;61221;-79
2022/02/21 07:50:19;;;;;;;21.10;10.90;;;;;;;18.89;35.31;100671.69;104087;1304;59774;-80
2022/02/21 07:52:45;;;;;;;21.80;10.90;;;;;;;18.87;35.20;100677.30;104222;1306;74790;-80
2022/02/21 07:55:11;;;;;;;18.70;11.50;;;;;;;18.85;35.16;100674.37;104071;1306;61309;-79
2022/02/21 07:57:41;;;;;;;21.30;10.50;;;;;;;18.80;35.06;100673.84;104091;1306;62229;-79
2022/02/21 08:00:07;;;;;;;20.20;11.70;;;;;;;18.73;35.17;100669.61;104241;1306;72665;-80
2022/02/21 08:02:33;;;;;;;21.00;11.10;;;;;;;18.71;35.24;100669.77;104030;1306;61116;-79
2022/02/21 08:04:59;;;;;;;19.40;11.30;;;;;;;18.69;35.22;100670.42;104828;1305;60115;-80
2022/02/21 08:07:25;;;;;;;20.90;11.30;;;;;;;18.67;35.20;100663.05;105063;1306;60538;-81
2022/02/21 08:09:50;;;;;;;16.60;10.70;;;;;;;18.66;35.23;100662.39;105065;1306;59719;-80
2022/02/21 08:12:16;;;;;;;19.70;10.20;;;;;;;18.67;35.24;100659.67;105267;1306;59669;-80
2022/02/21 08:14:42;;;;;;;22.80;11.80;;;;;;;18.67;35.34;100655.95;105098;1305;59401;-80
2022/02/21 08:17:07;;;;;;;17.80;11.10;;;;;;;18.68;35.31;100646.77;105149;1306;60040;-80
2022/02/21 08:19:33;;;;;;;22.60;10.40;;;;;;;18.70;35.34;100640.95;105218;1305;59267;-80
2022/02/21 08:21:58;;;;;;;20.30;9.70;;;;;;;18.73;35.48;100634.50;105270;1305;59716;-79
2022/02/21 08:24:24;;;;;;;21.70;10.20;;;;;;;18.79;35.50;100634.28;105374;1305;59306;-80
2022/02/21 08:26:50;;;;;;;17.10;10.20;;;;;;;18.84;35.45;100631.52;105243;1305;60392;-80
2022/02/21 08:29:15;;;;;;;17.30;10.10;;;;;;;18.86;35.49;100628.70;105349;1306;59567;-80
2022/02/21 08:31:42;;;;;;;16.10;9.70;;;;;;;18.87;35.47;100626.29;105156;1305;60571;-80
2022/02/21 08:34:08;;;;;;;15.30;10.50;;;;;;;18.88;35.39;100613.06;105325;1305;72847;-80
2022/02/21 08:36:34;;;;;;;19.00;10.90;;;;;;;18.88;35.26;100610.19;105148;1305;59599;-80
2022/02/21 08:39:00;;;;;;;16.40;10.80;;;;;;;18.88;35.28;100601.61;104922;1306;60602;-80
2022/02/21 08:41:25;;;;;;;15.30;10.70;;;;;;;18.89;35.14;100600.89;105224;1305;59606;-80
2022/02/21 08:43:51;;;;;;;18.20;10.30;;;;;;;18.91;35.08;100602.15;105375;1305;60017;-80
2022/02/21 08:46:16;;;;;;;15.20;10.70;;;;;;;18.94;35.07;100603.59;105319;1305;59216;-80
2022/02/21 08:48:42;;;;;;;19.20;10.20;;;;;;;18.97;35.03;100603.78;105284;1305;59617;-79
2022/02/21 08:51:08;;;;;;;17.10;9.80;;;;;;;18.98;35.03;100602.98;105287;1306;59578;-80
2022/02/21 08:53:34;;;;;;;20.10;11.00;;;;;;;19.00;34.98;100599.33;105145;1306;59642;-80
2022/02/21 08:56:01;;;;;;;18.70;11.00;;;;;;;18.98;35.02;100594.06;104920;1306;59295;-80
2022/02/21 08:58:27;;;;;;;18.00;11.70;;;;;;;18.93;35.05;100590.09;105140;1304;59483;-80
2022/02/21 09:00:52;;;;;;;19.80;11.40;;;;;;;18.83;35.00;100586.59;105064;1306;59612;-81
2022/02/21 09:03:18;;;;;;;28.90;11.10;;;;;;;18.75;35.21;100582.86;104313;1306;60224;-80
2022/02/21 09:05:44;;;;;;;19.60;11.20;;;;;;;18.71;35.39;100579.52;104296;1306;59958;-79
2022/02/21 09:08:09;;;;;;;22.40;10.80;;;;;;;18.67;35.58;100574.31;104266;1306;74224;-80
2022/02/21 09:10:36;;;;;;;23.30;11.40;;;;;;;18.63;35.61;100570.79;104622;1306;61250;-80
2022/02/21 09:13:01;;;;;;;14.60;9.70;;;;;;;18.61;35.74;100573.61;104591;1306;60114;-80
2022/02/21 09:15:27;;;;;;;16.00;10.80;;;;;;;18.58;35.53;100569.84;104408;1306;59575;-79
2022/02/21 09:17:53;;;;;;;17.50;10.40;;;;;;;18.57;35.64;100568.52;104449;1304;59935;-79
2022/02/21 09:20:19;;;;;;;17.60;10.50;;;;;;;18.54;35.74;100563.52;104294;1305;61301;-79
2022/02/21 09:22:49;;;;;;;18.00;10.80;;;;;;;18.53;35.72;100557.73;104394;1305;61290;-80
2022/02/21 09:25:17;;;;;;;18.90;10.20;;;;;;;18.52;35.68;100558.84;104392;1306;61412;-79
2022/02/21 09:28:05;;;;;;;18.10;10.00;;;;;;;18.52;35.72;100554.41;104345;1305;61419;-79
2022/02/21 09:30:33;;;;;;;14.90;9.80;;;;;;;18.52;35.69;100544.05;104388;1306;73771;-80
2022/02/21 09:32:59;;;;;;;23.10;11.10;;;;;;;18.51;35.60;100539.83;104230;1306;74547;-80
2022/02/21 09:35:24;;;;;;;15.20;10.50;;;;;;;18.51;35.85;100538.06;104197;1306;60288;-80
2022/02/21 09:37:59;;;;;;;17.20;10.20;;;;;;;18.50;35.84;100533.48;104250;1306;61399;-80
2022/02/21 09:40:25;;;;;;;17.50;10.10;;;;;;;18.48;35.83;100532.91;104266;1306;72860;-80
2022/02/21 09:42:59;;;;;;;15.30;10.00;;;;;;;18.46;35.81;100527.16;104338;1306;74941;-79
2022/02/21 09:45:25;;;;;;;15.60;10.10;;;;;;;18.44;35.90;100527.64;104193;1306;61332;-79
2022/02/21 09:47:58;;;;;;;17.70;11.10;;;;;;;18.42;35.87;100523.31;104248;1306;61179;-80
2022/02/21 09:50:25;;;;;;;15.30;10.60;;;;;;;18.40;35.93;100522.88;104715;1305;72963;-80
2022/02/21 09:52:51;;;;;;;22.10;11.20;;;;;;;18.38;35.83;100522.30;104411;1306;74680;-81
2022/02/21 09:55:16;;;;;;;21.50;11.90;;;;;;;18.36;35.96;100521.17;104360;1304;60024;-80
2022/02/21 09:57:43;;;;;;;20.80;12.00;;;;;;;18.28;35.85;100523.64;104352;1306;61288;-80
2022/02/21 10:00:10;;;;;;;28.70;12.50;;;;;;;18.23;35.92;100526.14;104131;1305;61364;-80
2022/02/21 10:02:35;;;;;;;22.40;12.00;;;;;;;18.18;36.11;100519.69;104354;1306;60118;-80
2022/02/21 10:05:28;;;;;;;28.40;10.80;;;;;;;18.14;36.24;100515.15;104681;1306;60137;-81
2022/02/21 10:07:54;;;;;;;23.90;10.80;;;;;;;18.15;36.33;100515.96;104757;1304;60539;-79
2022/02/21 10:10:25;;;;;;;21.90;10.30;;;;;;;18.17;36.61;100513.48;104602;1306;61013;-81
2022/02/21 10:12:54;;;;;;;21.20;10.90;;;;;;;18.20;36.59;100505.65;104444;1306;75921;-80
2022/02/21 10:15:25;;;;;;;16.60;9.30;;;;;;;18.22;36.67;100499.26;104665;1306;61768;-80
2022/02/21 10:18:07;;;;;;;17.50;9.60;;;;;;;18.23;36.75;100495.81;104680;1306;61359;-80
2022/02/21 10:20:33;;;;;;;15.70;8.90;;;;;;;18.25;36.71;100490.19;104139;1306;73960;-80
2022/02/21 10:23:04;;;;;;;21.30;9.90;;;;;;;18.25;36.85;100485.39;104598;1306;61449;-80
2022/02/21 10:25:30;;;;;;;21.10;9.50;;;;;;;18.26;37.02;100478.17;105288;1306;60541;-80
2022/02/21 10:27:59;;;;;;;15.90;9.30;;;;;;;18.27;37.08;100466.05;104910;1306;61307;-80
2022/02/21 10:30:32;;;;;;;15.60;8.90;;;;;;;18.27;37.11;100461.58;104577;1306;73016;-79
2022/02/21 10:32:58;;;;;;;16.00;9.40;;;;;;;18.26;37.22;100445.90;104662;1306;74367;-80
2022/02/21 10:35:30;;;;;;;25.10;9.30;;;;;;;18.27;37.22;100439.98;104527;1306;60099;-79
2022/02/21 10:37:59;;;;;;;23.40;9.80;;;;;;;18.29;37.39;100431.87;104596;1306;60393;-79
2022/02/21 10:40:27;;;;;;;16.10;9.50;;;;;;;18.29;37.52;100424.01;104630;1306;71775;-80
2022/02/21 10:43:09;;;;;;;19.70;8.20;;;;;;;18.29;37.43;100413.16;105348;1305;74192;-80
2022/02/21 10:45:35;;;;;;;16.20;8.50;;;;;;;18.28;37.53;100403.61;105302;1305;60509;-81
2022/02/21 10:48:07;;;;;;;17.90;8.30;;;;;;;18.28;37.53;100396.29;105356;1306;59574;-80
2022/02/21 10:50:34;;;;;;;13.40;7.70;;;;;;;18.28;37.53;100392.00;105331;1305;72584;-80
2022/02/21 10:53:07;;;;;;;17.20;9.40;;;;;;;18.27;37.48;100382.80;105116;1305;75614;-79
2022/02/21 10:55:34;;;;;;;23.00;8.30;;;;;;;18.20;37.25;100377.41;105009;1306;61453;-79
2022/02/21 10:57:59;;;;;;;18.80;8.80;;;;;;;18.17;37.23;100369.40;105298;1305;60530;-79
2022/02/21 11:00:25;;;;;;;19.10;8.40;;;;;;;18.19;37.53;100363.17;105255;1306;59643;-80
2022/02/21 11:02:50;;;;;;;16.00;8.30;;;;;;;18.21;37.33;100359.69;105148;1305;60768;-79
2022/02/21 11:05:16;;;;;;;14.40;8.10;;;;;;;18.15;37.42;100356.54;105257;1305;59722;-79
2022/02/21 11:07:42;;;;;;;20.40;8.40;;;;;;;18.14;37.46;100349.85;105307;1305;59444;-79
2022/02/21 11:10:09;;;;;;;20.30;8.20;;;;;;;18.15;37.45;100344.21;104893;1306;60460;-79
2022/02/21 11:12:37;;;;;;;19.70;8.10;;;;;;;18.18;37.52;100341.20;105371;1306;59275;-80
2022/02/21 11:15:04;;;;;;;15.30;7.40;;;;;;;18.20;37.45;100337.52;105464;1305;74696;-80
2022/02/21 11:17:31;;;;;;;14.40;8.40;;;;;;;18.19;37.37;100335.05;104152;1306;62293;-80
2022/02/21 11:19:58;;;;;;;18.20;7.90;;;;;;;18.19;37.49;100329.90;103989;1306;62063;-80
2022/02/21 11:22:24;;;;;;;15.60;8.00;;;;;;;18.20;37.41;100328.23;105409;1305;59342;-80
2022/02/21 11:25:24;;;;;;;18.60;7.60;;;;;;;18.22;37.53;100318.32;104047;1306;74717;-80
2022/02/21 11:28:22;;;;;;;14.30;7.30;;;;;;;18.22;37.44;100313.51;104212;1306;61160;-81
2022/02/21 11:30:49;;;;;;;13.40;7.30;;;;;;;18.22;37.37;100310.27;104132;1306;61847;-81
2022/02/21 11:33:20;;;;;;;9.90;6.40;;;;;;;18.23;37.50;100301.13;104224;1306;74434;-80
2022/02/21 11:36:04;;;;;;;12.30;6.90;;;;;;;18.23;37.40;100299.02;104410;1306;76693;-80
2022/02/21 11:38:29;;;;;;;18.10;6.80;;;;;;;18.23;37.39;100294.92;105483;1305;60382;-79
2022/02/21 11:41:04;;;;;;;11.10;6.60;;;;;;;18.22;37.42;100294.77;105304;1304;59271;-80
2022/02/21 11:43:51;;;;;;;9.70;6.70;;;;;;;18.23;37.36;100287.40;104519;1304;72675;-79
2022/02/21 11:46:20;;;;;;;11.70;6.70;;;;;;;18.22;37.24;100282.48;105057;1306;75634;-79
2022/02/21 11:48:55;;;;;;;10.50;6.40;;;;;;;18.17;37.05;100272.50;105322;1305;60627;-79
2022/02/21 11:51:30;;;;;;;13.60;6.80;;;;;;;18.14;36.76;100267.59;105263;1305;60234;-79
2022/02/21 11:54:16;;;;;;;15.20;6.20;;;;;;;18.09;36.63;100265.77;105157;1305;72941;-79
2022/02/21 11:56:47;;;;;;;11.80;6.70;;;;;;;18.05;36.37;100259.56;105250;1305;74967;-80
2022/02/21 11:59:25;;;;;;;13.00;6.70;;;;;;;18.02;36.47;100253.36;105066;1305;60442;-79
2022/02/21 12:02:13;;;;;;;19.20;7.10;;;;;;;17.98;36.21;100246.54;105259;1304;61612;-79
2022/02/21 12:04:49;;;;;;;14.60;6.40;;;;;;;17.91;36.12;100242.48;105353;1306;73740;-80
2022/02/21 12:07:25;;;;;;;13.80;6.40;;;;;;;17.91;36.04;100230.75;105165;1306;75845;-79
2022/02/21 12:10:21;;;;;;;15.30;6.20;;;;;;;17.92;35.95;100228.73;105393;1305;61673;-80
2022/02/21 12:12:54;;;;;;;11.90;6.50;;;;;;;17.93;35.99;100223.32;105347;1305;61590;-80
2022/02/21 12:15:20;;;;;;;12.30;7.30;;;;;;;17.95;35.95;100224.10;105337;1306;73681;-80
2022/02/21 12:17:46;;;;;;;13.20;6.70;;;;;;;17.96;35.92;100215.16;105260;1305;74861;-79
2022/02/21 12:20:33;;;;;;;14.00;7.00;;;;;;;17.98;35.88;100206.50;105253;1306;59501;-79
2022/02/21 12:23:17;;;;;;;11.00;6.20;;;;;;;18.01;35.92;100208.79;105337;1305;60509;-79
2022/02/21 12:26:15;;;;;;;12.90;6.40;;;;;;;18.03;36.05;100206.48;105520;1306;74169;-79
2022/02/21 12:28:41;;;;;;;13.00;6.30;;;;;;;18.06;35.95;100200.94;105000;1311;75702;-79
2022/02/21 12:31:07;;;;;;;12.00;6.20;;;;;;;18.09;35.99;100192.92;104940;1312;59571;-80
2022/02/21 12:33:33;;;;;;;13.00;6.90;;;;;;;18.12;36.00;100183.83;104885;1312;60273;-80
2022/02/21 12:36:06;;;;;;;10.30;6.10;;;;;;;18.14;36.14;100183.66;104614;1312;59234;-80
2022/02/21 12:38:38;;;;;;;14.60;6.10;;;;;;;18.15;36.01;100175.41;104920;1312;75571;-79
2022/02/21 12:41:08;;;;;;;15.60;6.40;;;;;;;18.15;35.98;100169.02;104816;1312;60135;-80
2022/02/21 12:43:53;;;;;;;17.70;6.40;;;;;;;18.10;35.88;100167.03;104695;1312;61706;-79